sensor_id;sensor_type;location;lat;lon;timestamp;pressure;altitude;pressure_sealevel;temperature;humidity
59190;BME280;50749;51.636;4.948;2023-07-29T00:01:34;100792.66;;;21.62;63.52
59190;BME280;50749;51.636;4.948;2023-07-29T00:03:59;100798.22;;;21.62;63.93
59190;BME280;50749;51.636;4.948;2023-07-29T00:06:26;100804.56;;;21.63;63.82
59190;BME280;50749;51.636;4.948;2023-07-29T00:08:52;100796.63;;;21.61;63.54
59190;BME280;50749;51.636;4.948;2023-07-29T00:11:18;100807.75;;;21.61;63.61
59190;BME280;50749;51.636;4.948;2023-07-29T00:13:43;100795.03;;;21.60;63.51
59190;BME280;50749;51.636;4.948;2023-07-29T00:16:09;100799.78;;;21.60;63.85
59190;BME280;50749;51.636;4.948;2023-07-29T00:18:35;100793.44;;;21.59;63.75
59190;BME280;50749;51.636;4.948;2023-07-29T00:21:01;100779.91;;;21.58;63.75
59190;BME280;50749;51.636;4.948;2023-07-29T00:23:27;100775.50;;;21.57;64.07
59190;BME280;50749;51.636;4.948;2023-07-29T00:25:53;100782.28;;;21.56;63.87
59190;BME280;50749;51.636;4.948;2023-07-29T00:28:19;100772.31;;;21.55;63.89
59190;BME280;50749;51.636;4.948;2023-07-29T00:30:45;100775.09;;;21.55;63.83
59190;BME280;50749;51.636;4.948;2023-07-29T00:33:10;100769.53;;;21.55;63.83
59190;BME280;50749;51.636;4.948;2023-07-29T00:35:36;100770.75;;;21.54;63.95
59190;BME280;50749;51.636;4.948;2023-07-29T00:38:02;100772.69;;;21.53;63.76
59190;BME280;50749;51.636;4.948;2023-07-29T00:40:28;100774.69;;;21.52;63.33
59190;BME280;50749;51.636;4.948;2023-07-29T00:42:54;100768.34;;;21.52;63.64
59190;BME280;50749;51.636;4.948;2023-07-29T00:45:20;100776.69;;;21.52;63.87
59190;BME280;50749;51.636;4.948;2023-07-29T00:47:46;100773.09;;;21.51;63.94
59190;BME280;50749;51.636;4.948;2023-07-29T00:50:13;100787.00;;;21.51;63.66
59190;BME280;50749;51.636;4.948;2023-07-29T00:52:40;100780.63;;;21.51;63.39
59190;BME280;50749;51.636;4.948;2023-07-29T00:55:06;100779.03;;;21.50;63.96
59190;BME280;50749;51.636;4.948;2023-07-29T00:57:33;100773.47;;;21.50;63.82
59190;BME280;50749;51.636;4.948;2023-07-29T01:00:00;100772.69;;;21.49;63.89
59190;BME280;50749;51.636;4.948;2023-07-29T01:02:26;100782.19;;;21.48;63.70
59190;BME280;50749;51.636;4.948;2023-07-29T01:04:54;100768.28;;;21.48;63.40
59190;BME280;50749;51.636;4.948;2023-07-29T01:10:01;100765.50;;;21.48;63.57
59190;BME280;50749;51.636;4.948;2023-07-29T01:12:56;100767.50;;;21.48;63.69
59190;BME280;50749;51.636;4.948;2023-07-29T01:15:32;100763.13;;;21.47;63.49
59190;BME280;50749;51.636;4.948;2023-07-29T01:18:05;100769.50;;;21.47;63.59
59190;BME280;50749;51.636;4.948;2023-07-29T01:20:33;100768.69;;;21.47;63.65
59190;BME280;50749;51.636;4.948;2023-07-29T01:22:59;100764.28;;;21.46;63.18
59190;BME280;50749;51.636;4.948;2023-07-29T01:25:25;100763.50;;;21.45;63.23
59190;BME280;50749;51.636;4.948;2023-07-29T01:27:52;100760.72;;;21.45;63.29
59190;BME280;50749;51.636;4.948;2023-07-29T01:30:19;100771.81;;;21.45;63.25
59190;BME280;50749;51.636;4.948;2023-07-29T01:33:20;100761.50;;;21.46;63.08
59190;BME280;50749;51.636;4.948;2023-07-29T01:35:50;100744.78;;;21.42;63.18
59190;BME280;50749;51.636;4.948;2023-07-29T01:38:28;100750.75;;;21.44;63.56
59190;BME280;50749;51.636;4.948;2023-07-29T01:40:57;100763.06;;;21.43;62.95
59190;BME280;50749;51.636;4.948;2023-07-29T01:43:23;100760.72;;;21.45;63.34
59190;BME280;50749;51.636;4.948;2023-07-29T01:45:51;100760.25;;;21.43;63.41
59190;BME280;50749;51.636;4.948;2023-07-29T01:48:17;100755.13;;;21.42;63.32
59190;BME280;50749;51.636;4.948;2023-07-29T01:50:43;100766.25;;;21.42;62.80
59190;BME280;50749;51.636;4.948;2023-07-29T01:53:08;100755.13;;;21.42;62.92
59190;BME280;50749;51.636;4.948;2023-07-29T01:55:34;100752.34;;;21.42;63.00
59190;BME280;50749;51.636;4.948;2023-07-29T01:58:00;100757.06;;;21.41;63.29
59190;BME280;50749;51.636;4.948;2023-07-29T02:00:26;100753.50;;;21.41;63.12
59190;BME280;50749;51.636;4.948;2023-07-29T02:02:51;100748.75;;;21.41;63.09
59190;BME280;50749;51.636;4.948;2023-07-29T02:05:17;100741.59;;;21.40;62.64
59190;BME280;50749;51.636;4.948;2023-07-29T02:07:43;100746.34;;;21.40;62.64
59190;BME280;50749;51.636;4.948;2023-07-29T02:10:09;100747.16;;;21.40;63.08
59190;BME280;50749;51.636;4.948;2023-07-29T02:12:35;100743.56;;;21.40;63.10
59190;BME280;50749;51.636;4.948;2023-07-29T02:15:00;100740.78;;;21.40;62.65
59190;BME280;50749;51.636;4.948;2023-07-29T02:17:26;100744.38;;;21.40;63.00
59190;BME280;50749;51.636;4.948;2023-07-29T02:19:52;100727.69;;;21.40;62.52
59190;BME280;50749;51.636;4.948;2023-07-29T02:22:18;100726.88;;;21.40;62.96
59190;BME280;50749;51.636;4.948;2023-07-29T02:24:44;100736.41;;;21.39;62.65
59190;BME280;50749;51.636;4.948;2023-07-29T02:27:10;100728.06;;;21.39;62.53
59190;BME280;50749;51.636;4.948;2023-07-29T02:29:36;100731.25;;;21.37;62.40
59190;BME280;50749;51.636;4.948;2023-07-29T02:32:02;100722.91;;;21.37;62.25
59190;BME280;50749;51.636;4.948;2023-07-29T02:34:29;100720.13;;;21.37;62.68
59190;BME280;50749;51.636;4.948;2023-07-29T02:36:55;100701.03;;;21.36;62.35
59190;BME280;50749;51.636;4.948;2023-07-29T02:39:21;100709.78;;;21.38;62.44
59190;BME280;50749;51.636;4.948;2023-07-29T02:41:47;100715.72;;;21.36;62.25
59190;BME280;50749;51.636;4.948;2023-07-29T02:44:13;100718.50;;;21.36;62.32
59190;BME280;50749;51.636;4.948;2023-07-29T02:46:38;100718.50;;;21.36;62.21
59190;BME280;50749;51.636;4.948;2023-07-29T02:49:04;100712.94;;;21.36;62.66
59190;BME280;50749;51.636;4.948;2023-07-29T02:51:30;100731.25;;;21.37;62.12
59190;BME280;50749;51.636;4.948;2023-07-29T02:53:56;100725.28;;;21.35;62.22
59190;BME280;50749;51.636;4.948;2023-07-29T02:56:22;100723.28;;;21.36;62.18
59190;BME280;50749;51.636;4.948;2023-07-29T02:58:48;100726.44;;;21.34;62.37
59190;BME280;50749;51.636;4.948;2023-07-29T03:01:14;100728.03;;;21.35;62.17
59190;BME280;50749;51.636;4.948;2023-07-29T03:03:39;100723.66;;;21.34;62.11
59190;BME280;50749;51.636;4.948;2023-07-29T03:06:07;100731.22;;;21.33;62.27
59190;BME280;50749;51.636;4.948;2023-07-29T03:08:34;100717.31;;;21.33;62.48
59190;BME280;50749;51.636;4.948;2023-07-29T03:11:06;100728.81;;;21.32;62.22
59190;BME280;50749;51.636;4.948;2023-07-29T03:13:33;100729.59;;;21.32;62.17
59190;BME280;50749;51.636;4.948;2023-07-29T03:16:12;100738.31;;;21.31;62.27
59190;BME280;50749;51.636;4.948;2023-07-29T03:18:40;100740.31;;;21.30;61.86
59190;BME280;50749;51.636;4.948;2023-07-29T03:21:06;100731.16;;;21.30;61.75
59190;BME280;50749;51.636;4.948;2023-07-29T03:23:33;100747.84;;;21.30;62.01
59190;BME280;50749;51.636;4.948;2023-07-29T03:26:00;100736.72;;;21.30;62.13
59190;BME280;50749;51.636;4.948;2023-07-29T03:28:28;100733.16;;;21.29;61.88
59190;BME280;50749;51.636;4.948;2023-07-29T03:30:57;100738.28;;;21.27;62.33
59190;BME280;50749;51.636;4.948;2023-07-29T03:33:24;100748.25;;;21.28;61.81
59190;BME280;50749;51.636;4.948;2023-07-29T03:35:50;100750.22;;;21.28;61.68
59190;BME280;50749;51.636;4.948;2023-07-29T03:38:16;100745.84;;;21.27;62.10
59190;BME280;50749;51.636;4.948;2023-07-29T03:40:42;100733.13;;;21.26;61.62
59190;BME280;50749;51.636;4.948;2023-07-29T03:43:08;100724.78;;;21.26;61.55
59190;BME280;50749;51.636;4.948;2023-07-29T03:45:35;100726.38;;;21.27;61.74
59190;BME280;50749;51.636;4.948;2023-07-29T03:48:02;100713.66;;;21.26;61.52
59190;BME280;50749;51.636;4.948;2023-07-29T03:50:28;100714.44;;;21.26;61.57
59190;BME280;50749;51.636;4.948;2023-07-29T03:52:55;100702.13;;;21.24;61.58
59190;BME280;50749;51.636;4.948;2023-07-29T03:55:21;100696.56;;;21.24;61.82
59190;BME280;50749;51.636;4.948;2023-07-29T04:02:39;100713.66;;;21.26;61.64
59190;BME280;50749;51.636;4.948;2023-07-29T04:05:05;100709.28;;;21.25;61.49
59190;BME280;50749;51.636;4.948;2023-07-29T04:07:34;100721.59;;;21.24;61.52
59190;BME280;50749;51.636;4.948;2023-07-29T04:10:00;100719.97;;;21.23;61.64
59190;BME280;50749;51.636;4.948;2023-07-29T04:12:27;100710.47;;;21.24;61.47
59190;BME280;50749;51.636;4.948;2023-07-29T04:14:52;100719.97;;;21.23;61.34
59190;BME280;50749;51.636;4.948;2023-07-29T04:17:18;100726.34;;;21.23;61.29
59190;BME280;50749;51.636;4.948;2023-07-29T04:19:44;100740.63;;;21.22;61.24
59190;BME280;50749;51.636;4.948;2023-07-29T04:22:10;100739.03;;;21.21;61.12
59190;BME280;50749;51.636;4.948;2023-07-29T04:24:36;100741.81;;;21.21;61.76
59190;BME280;50749;51.636;4.948;2023-07-29T04:27:02;100744.59;;;21.21;61.33
59190;BME280;50749;51.636;4.948;2023-07-29T04:29:27;100744.59;;;21.21;61.16
59190;BME280;50749;51.636;4.948;2023-07-29T04:31:53;100739.03;;;21.21;61.64
59190;BME280;50749;51.636;4.948;2023-07-29T04:34:19;100745.75;;;21.20;61.04
59190;BME280;50749;51.636;4.948;2023-07-29T04:36:46;100735.47;;;21.20;61.37
59190;BME280;50749;51.636;4.948;2023-07-29T04:39:12;100742.19;;;21.19;61.26
59190;BME280;50749;51.636;4.948;2023-07-29T04:41:38;100747.38;;;21.21;61.19
59190;BME280;50749;51.636;4.948;2023-07-29T04:44:03;100752.53;;;21.19;61.13
59190;BME280;50749;51.636;4.948;2023-07-29T04:46:29;100754.09;;;21.20;60.96
59190;BME280;50749;51.636;4.948;2023-07-29T04:48:55;100755.31;;;21.19;61.06
59190;BME280;50749;51.636;4.948;2023-07-29T04:51:21;100757.25;;;21.18;61.23
59190;BME280;50749;51.636;4.948;2023-07-29T04:53:47;100762.81;;;21.18;61.34
59190;BME280;50749;51.636;4.948;2023-07-29T04:56:13;100758.06;;;21.19;61.46
59190;BME280;50749;51.636;4.948;2023-07-29T04:58:38;100759.25;;;21.18;61.23
59190;BME280;50749;51.636;4.948;2023-07-29T05:01:05;100751.69;;;21.18;61.26
59190;BME280;50749;51.636;4.948;2023-07-29T05:03:31;100757.25;;;21.18;61.61
59190;BME280;50749;51.636;4.948;2023-07-29T05:05:58;100757.69;;;21.20;61.40
59190;BME280;50749;51.636;4.948;2023-07-29T05:08:23;100758.09;;;21.22;61.95
59190;BME280;50749;51.636;4.948;2023-07-29T05:10:51;100758.09;;;21.22;61.74
59190;BME280;50749;51.636;4.948;2023-07-29T05:15:43;100760.50;;;21.24;61.88
59190;BME280;50749;51.636;4.948;2023-07-29T05:18:08;100759.75;;;21.27;61.98
59190;BME280;50749;51.636;4.948;2023-07-29T05:20:34;100754.19;;;21.27;61.57
59190;BME280;50749;51.636;4.948;2023-07-29T05:23:00;100753.81;;;21.28;61.68
59190;BME280;50749;51.636;4.948;2023-07-29T05:25:26;100750.22;;;21.28;62.05
59190;BME280;50749;51.636;4.948;2023-07-29T05:27:52;100751.41;;;21.27;61.97
59190;BME280;50749;51.636;4.948;2023-07-29T05:30:18;100752.59;;;21.29;61.86
59190;BME280;50749;51.636;4.948;2023-07-29T05:32:44;100752.59;;;21.29;61.72
59190;BME280;50749;51.636;4.948;2023-07-29T05:35:10;100747.84;;;21.30;62.12
59190;BME280;50749;51.636;4.948;2023-07-29T05:37:38;100743.88;;;21.31;62.03
59190;BME280;50749;51.636;4.948;2023-07-29T05:40:06;100745.50;;;21.32;62.08
59190;BME280;50749;51.636;4.948;2023-07-29T05:42:32;100761.34;;;21.31;61.66
59190;BME280;50749;51.636;4.948;2023-07-29T05:44:58;100755.41;;;21.33;62.01
59190;BME280;50749;51.636;4.948;2023-07-29T05:47:24;100749.44;;;21.31;61.54
59190;BME280;50749;51.636;4.948;2023-07-29T05:49:50;100756.63;;;21.32;62.03
59190;BME280;50749;51.636;4.948;2023-07-29T05:52:15;100759.41;;;21.32;61.81
59190;BME280;50749;51.636;4.948;2023-07-29T05:54:41;100747.06;;;21.33;61.86
59190;BME280;50749;51.636;4.948;2023-07-29T05:57:09;100756.66;;;21.36;61.76
59190;BME280;50749;51.636;4.948;2023-07-29T05:59:35;100752.28;;;21.38;62.01
59190;BME280;50749;51.636;4.948;2023-07-29T06:02:01;100749.94;;;21.40;61.78
59190;BME280;50749;51.636;4.948;2023-07-29T06:04:26;100757.06;;;21.41;61.60
59190;BME280;50749;51.636;4.948;2023-07-29T06:06:52;100763.84;;;21.40;61.30
59190;BME280;50749;51.636;4.948;2023-07-29T06:09:18;100763.03;;;21.40;61.79
59190;BME280;50749;51.636;4.948;2023-07-29T06:11:44;100762.63;;;21.41;61.87
59190;BME280;50749;51.636;4.948;2023-07-29T06:14:09;100755.13;;;21.42;62.01
59190;BME280;50749;51.636;4.948;2023-07-29T06:16:35;100761.88;;;21.44;62.09
59190;BME280;50749;51.636;4.948;2023-07-29T06:19:01;100760.25;;;21.43;61.98
59190;BME280;50749;51.636;4.948;2023-07-29T06:21:26;100751.94;;;21.43;61.49
59190;BME280;50749;51.636;4.948;2023-07-29T06:23:52;100765.84;;;21.43;61.55
59190;BME280;50749;51.636;4.948;2023-07-29T06:26:18;100767.03;;;21.42;61.41
59190;BME280;50749;51.636;4.948;2023-07-29T06:28:44;100765.00;;;21.39;61.92
59190;BME280;50749;51.636;4.948;2023-07-29T06:31:10;100763.84;;;21.40;61.42
59190;BME280;50749;51.636;4.948;2023-07-29T06:33:35;100770.16;;;21.37;61.42
59190;BME280;50749;51.636;4.948;2023-07-29T06:36:01;100773.34;;;21.39;61.74
59190;BME280;50749;51.636;4.948;2023-07-29T06:38:27;100767.78;;;21.39;61.88
59190;BME280;50749;51.636;4.948;2023-07-29T06:40:53;100770.56;;;21.39;61.75
59190;BME280;50749;51.636;4.948;2023-07-29T06:43:19;100766.63;;;21.40;61.92
59190;BME280;50749;51.636;4.948;2023-07-29T06:45:44;100770.19;;;21.41;61.47
59190;BME280;50749;51.636;4.948;2023-07-29T06:48:10;100772.19;;;21.40;61.33
59190;BME280;50749;51.636;4.948;2023-07-29T06:50:36;100771.81;;;21.42;61.41
59190;BME280;50749;51.636;4.948;2023-07-29T06:53:03;100768.19;;;21.41;61.67
59190;BME280;50749;51.636;4.948;2023-07-29T06:55:28;100772.59;;;21.42;61.46
59190;BME280;50749;51.636;4.948;2023-07-29T06:57:54;100771.81;;;21.45;61.61
59190;BME280;50749;51.636;4.948;2023-07-29T07:00:20;100775.06;;;21.47;61.73
59190;BME280;50749;51.636;4.948;2023-07-29T07:02:46;100768.28;;;21.48;61.37
59190;BME280;50749;51.636;4.948;2023-07-29T07:05:12;100776.63;;;21.48;61.30
59190;BME280;50749;51.636;4.948;2023-07-29T07:07:38;100783.41;;;21.51;61.38
59190;BME280;50749;51.636;4.948;2023-07-29T07:10:04;100774.69;;;21.52;61.36
59190;BME280;50749;51.636;4.948;2023-07-29T07:12:30;100767.97;;;21.54;61.50
59190;BME280;50749;51.636;4.948;2023-07-29T07:14:55;100770.28;;;21.48;61.40
59190;BME280;50749;51.636;4.948;2023-07-29T07:17:21;100773.00;;;21.44;61.43
59190;BME280;50749;51.636;4.948;2023-07-29T07:19:47;100786.91;;;21.44;61.66
59190;BME280;50749;51.636;4.948;2023-07-29T07:22:13;100788.50;;;21.45;61.45
59190;BME280;50749;51.636;4.948;2023-07-29T07:24:38;100791.34;;;21.49;61.23
59190;BME280;50749;51.636;4.948;2023-07-29T07:27:04;100783.81;;;21.49;60.90
59190;BME280;50749;51.636;4.948;2023-07-29T07:29:30;100782.63;;;21.50;61.06
59190;BME280;50749;51.636;4.948;2023-07-29T07:31:56;100785.03;;;21.52;61.12
59190;BME280;50749;51.636;4.948;2023-07-29T07:34:22;100787.81;;;21.52;60.66
59190;BME280;50749;51.636;4.948;2023-07-29T07:36:49;100796.16;;;21.52;60.79
59190;BME280;50749;51.636;4.948;2023-07-29T07:39:15;100792.56;;;21.51;60.78
59190;BME280;50749;51.636;4.948;2023-07-29T07:41:41;100794.16;;;21.52;60.66
59190;BME280;50749;51.636;4.948;2023-07-29T07:44:07;100806.06;;;21.53;60.51
59190;BME280;50749;51.636;4.948;2023-07-29T07:46:34;100799.72;;;21.52;60.58
59190;BME280;50749;51.636;4.948;2023-07-29T07:48:59;100804.13;;;21.54;60.99
59190;BME280;50749;51.636;4.948;2023-07-29T07:51:25;100806.06;;;21.53;60.43
59190;BME280;50749;51.636;4.948;2023-07-29T07:53:51;100800.13;;;21.55;60.32
59190;BME280;50749;51.636;4.948;2023-07-29T07:56:17;100800.13;;;21.55;60.60
59190;BME280;50749;51.636;4.948;2023-07-29T07:58:43;100794.19;;;21.56;60.26
59190;BME280;50749;51.636;4.948;2023-07-29T08:01:09;100793.41;;;21.56;60.70
59190;BME280;50749;51.636;4.948;2023-07-29T08:03:35;100796.19;;;21.56;60.61
59190;BME280;50749;51.636;4.948;2023-07-29T08:06:02;100803.31;;;21.57;60.16
59190;BME280;50749;51.636;4.948;2023-07-29T08:08:28;100800.53;;;21.57;60.05
59190;BME280;50749;51.636;4.948;2023-07-29T08:10:54;100798.19;;;21.59;60.46
59190;BME280;50749;51.636;4.948;2023-07-29T08:13:22;100801.38;;;21.57;60.09
59190;BME280;50749;51.636;4.948;2023-07-29T08:15:49;100797.00;;;21.60;60.09
59190;BME280;50749;51.636;4.948;2023-07-29T08:18:15;100801.78;;;21.59;59.95
59190;BME280;50749;51.636;4.948;2023-07-29T08:20:52;100799.75;;;21.56;60.05
59190;BME280;50749;51.636;4.948;2023-07-29T08:23:18;100800.13;;;21.55;60.22
59190;BME280;50749;51.636;4.948;2023-07-29T08:25:44;100796.19;;;21.56;59.76
59190;BME280;50749;51.636;4.948;2023-07-29T08:28:09;100797.75;;;21.57;59.63
59190;BME280;50749;51.636;4.948;2023-07-29T08:30:36;100804.94;;;21.58;59.62
59190;BME280;50749;51.636;4.948;2023-07-29T08:33:02;100798.19;;;21.59;59.97
59190;BME280;50749;51.636;4.948;2023-07-29T08:35:28;100794.97;;;21.57;59.55
59190;BME280;50749;51.636;4.948;2023-07-29T08:37:54;100784.69;;;21.57;59.66
59190;BME280;50749;51.636;4.948;2023-07-29T08:40:26;100788.28;;;21.61;59.87
59190;BME280;50749;51.636;4.948;2023-07-29T08:42:54;100793.06;;;21.64;59.47
59190;BME280;50749;51.636;4.948;2023-07-29T08:45:20;100793.84;;;21.65;59.91
59190;BME280;50749;51.636;4.948;2023-07-29T08:47:48;100788.69;;;21.67;59.34
59190;BME280;50749;51.636;4.948;2023-07-29T08:50:16;100798.66;;;21.68;59.31
59190;BME280;50749;51.636;4.948;2023-07-29T08:52:42;100805.41;;;21.67;59.44
59190;BME280;50749;51.636;4.948;2023-07-29T08:55:10;100799.81;;;21.67;59.40
59190;BME280;50749;51.636;4.948;2023-07-29T08:57:35;100805.41;;;21.67;59.10
59190;BME280;50749;51.636;4.948;2023-07-29T09:00:02;100796.66;;;21.68;59.41
59190;BME280;50749;51.636;4.948;2023-07-29T09:02:28;100812.56;;;21.68;58.89
59190;BME280;50749;51.636;4.948;2023-07-29T09:04:54;100811.41;;;21.69;59.46
59190;BME280;50749;51.636;4.948;2023-07-29T09:07:20;100806.22;;;21.67;59.46
59190;BME280;50749;51.636;4.948;2023-07-29T09:09:46;100793.47;;;21.66;59.52
59190;BME280;50749;51.636;4.948;2023-07-29T09:12:12;100806.59;;;21.66;59.10
59190;BME280;50749;51.636;4.948;2023-07-29T09:14:38;100797.03;;;21.67;59.60
59190;BME280;50749;51.636;4.948;2023-07-29T09:17:07;100805.81;;;21.65;59.19
59190;BME280;50749;51.636;4.948;2023-07-29T09:19:33;100806.97;;;21.64;59.32
59190;BME280;50749;51.636;4.948;2023-07-29T09:22:00;100804.56;;;21.59;59.69
59190;BME280;50749;51.636;4.948;2023-07-29T09:24:26;100810.50;;;21.58;60.51
59190;BME280;50749;51.636;4.948;2023-07-29T09:26:55;100811.25;;;21.55;60.42
59190;BME280;50749;51.636;4.948;2023-07-29T09:29:22;100805.28;;;21.52;60.19
59190;BME280;50749;51.636;4.948;2023-07-29T09:31:48;100800.50;;;21.49;60.23
59190;BME280;50749;51.636;4.948;2023-07-29T09:34:15;100802.47;;;21.49;60.31
59190;BME280;50749;51.636;4.948;2023-07-29T09:36:41;100798.88;;;21.48;60.49
59190;BME280;50749;51.636;4.948;2023-07-29T09:39:11;100796.53;;;21.50;60.67
59190;BME280;50749;51.636;4.948;2023-07-29T09:41:38;100801.34;;;21.54;60.75
59190;BME280;50749;51.636;4.948;2023-07-29T09:44:04;100798.94;;;21.52;61.43
59190;BME280;50749;51.636;4.948;2023-07-29T09:46:35;100789.38;;;21.53;61.30
59190;BME280;50749;51.636;4.948;2023-07-29T09:49:06;100784.22;;;21.51;61.26
59190;BME280;50749;51.636;4.948;2023-07-29T09:51:37;100794.97;;;21.57;61.33
59190;BME280;50749;51.636;4.948;2023-07-29T09:54:03;100791.03;;;21.58;61.22
59190;BME280;50749;51.636;4.948;2023-07-29T09:56:29;100785.09;;;21.63;61.32
59190;BME280;50749;51.636;4.948;2023-07-29T09:58:56;100794.25;;;21.67;61.49
59190;BME280;50749;51.636;4.948;2023-07-29T10:01:23;100791.91;;;21.69;61.35
59190;BME280;50749;51.636;4.948;2023-07-29T10:03:49;100787.94;;;21.70;61.86
59190;BME280;50749;51.636;4.948;2023-07-29T10:06:16;100789.53;;;21.71;62.11
59190;BME280;50749;51.636;4.948;2023-07-29T10:08:43;100792.34;;;21.71;61.58
59190;BME280;50749;51.636;4.948;2023-07-29T10:11:10;100791.94;;;21.73;61.96
59190;BME280;50749;51.636;4.948;2023-07-29T10:13:38;100787.56;;;21.71;61.62
59190;BME280;50749;51.636;4.948;2023-07-29T10:16:04;100784.75;;;21.68;61.56
59190;BME280;50749;51.636;4.948;2023-07-29T10:18:32;100777.16;;;21.65;61.44
59190;BME280;50749;51.636;4.948;2023-07-29T10:20:59;100776.75;;;21.63;61.67
59190;BME280;50749;51.636;4.948;2023-07-29T10:23:27;100772.38;;;21.62;61.84
59190;BME280;50749;51.636;4.948;2023-07-29T10:26:04;100775.22;;;21.65;61.80
59190;BME280;50749;51.636;4.948;2023-07-29T10:28:31;100774.00;;;21.66;62.14
59190;BME280;50749;51.636;4.948;2023-07-29T10:30:57;100769.22;;;21.67;61.65
59190;BME280;50749;51.636;4.948;2023-07-29T10:33:24;100774.84;;;21.70;61.50
59190;BME280;50749;51.636;4.948;2023-07-29T10:35:51;100778.03;;;21.73;61.87
59190;BME280;50749;51.636;4.948;2023-07-29T10:38:19;100777.66;;;21.74;61.93
59190;BME280;50749;51.636;4.948;2023-07-29T10:40:56;100784.00;;;21.75;61.75
59190;BME280;50749;51.636;4.948;2023-07-29T10:43:32;100784.78;;;21.75;61.02
59190;BME280;50749;51.636;4.948;2023-07-29T10:46:21;100789.19;;;21.76;61.61
59190;BME280;50749;51.636;4.948;2023-07-29T10:54:11;100793.16;;;21.75;61.63
59190;BME280;50749;51.636;4.948;2023-07-29T10:56:41;100807.50;;;21.77;62.64
59190;BME280;50749;51.636;4.948;2023-07-29T11:01:43;100801.47;;;21.71;63.98
59190;BME280;50749;51.636;4.948;2023-07-29T11:09:42;100817.00;;;21.73;64.65
59190;BME280;50749;51.636;4.948;2023-07-29T11:15:11;100806.25;;;21.75;65.24
59190;BME280;50749;51.636;4.948;2023-07-29T11:20:11;100809.06;;;21.78;65.15
59190;BME280;50749;51.636;4.948;2023-07-29T11:22:38;100814.25;;;21.80;65.54
59190;BME280;50749;51.636;4.948;2023-07-29T11:25:04;100813.47;;;21.79;65.65
59190;BME280;50749;51.636;4.948;2023-07-29T11:27:31;100814.63;;;21.78;65.73
59190;BME280;50749;51.636;4.948;2023-07-29T11:29:58;100832.19;;;21.82;65.32
59190;BME280;50749;51.636;4.948;2023-07-29T11:32:24;100830.97;;;21.83;65.51
59190;BME280;50749;51.636;4.948;2023-07-29T11:34:50;100815.50;;;21.86;65.89
59190;BME280;50749;51.636;4.948;2023-07-29T11:37:16;100811.13;;;21.88;65.23
59190;BME280;50749;51.636;4.948;2023-07-29T11:39:44;100813.56;;;21.94;65.22
59190;BME280;50749;51.636;4.948;2023-07-29T11:42:14;100799.25;;;21.95;65.50
59190;BME280;50749;51.636;4.948;2023-07-29T11:44:41;100801.66;;;21.97;64.99
59190;BME280;50749;51.636;4.948;2023-07-29T11:47:11;100801.66;;;21.97;65.84
59190;BME280;50749;51.636;4.948;2023-07-29T11:49:40;100793.31;;;21.97;65.32
59190;BME280;50749;51.636;4.948;2023-07-29T11:52:07;100791.72;;;21.96;65.41
59190;BME280;50749;51.636;4.948;2023-07-29T11:54:38;100795.28;;;21.96;65.70
59190;BME280;50749;51.636;4.948;2023-07-29T11:57:06;100811.22;;;21.96;65.48
59190;BME280;50749;51.636;4.948;2023-07-29T11:59:36;100815.94;;;21.95;65.52
59190;BME280;50749;51.636;4.948;2023-07-29T12:02:29;100820.72;;;21.95;65.49
59190;BME280;50749;51.636;4.948;2023-07-29T12:04:56;100829.47;;;21.93;65.46
59190;BME280;50749;51.636;4.948;2023-07-29T12:07:22;100823.91;;;21.93;65.52
59190;BME280;50749;51.636;4.948;2023-07-29T12:09:49;100816.31;;;21.90;65.46
59190;BME280;50749;51.636;4.948;2023-07-29T12:12:15;100816.72;;;21.92;65.50
59190;BME280;50749;51.636;4.948;2023-07-29T12:14:45;100813.16;;;21.92;66.09
59190;BME280;50749;51.636;4.948;2023-07-29T12:17:13;100811.94;;;21.89;66.06
59190;BME280;50749;51.636;4.948;2023-07-29T12:19:41;100807.19;;;21.89;66.16
59190;BME280;50749;51.636;4.948;2023-07-29T12:22:09;100808.78;;;21.91;66.26
59190;BME280;50749;51.636;4.948;2023-07-29T12:24:37;100813.16;;;21.92;66.16
59190;BME280;50749;51.636;4.948;2023-07-29T12:27:04;100815.94;;;21.92;66.65
59190;BME280;50749;51.636;4.948;2023-07-29T12:29:30;100813.56;;;21.94;66.36
59190;BME280;50749;51.636;4.948;2023-07-29T12:32:03;100817.53;;;21.93;66.36
59190;BME280;50749;51.636;4.948;2023-07-29T12:34:30;100810.78;;;21.94;66.67
59190;BME280;50749;51.636;4.948;2023-07-29T12:36:58;100819.13;;;21.94;66.79
59190;BME280;50749;51.636;4.948;2023-07-29T12:39:29;100810.78;;;21.94;66.55
59190;BME280;50749;51.636;4.948;2023-07-29T12:41:56;100813.56;;;21.94;66.78
59190;BME280;50749;51.636;4.948;2023-07-29T12:44:34;100805.63;;;21.96;66.54
59190;BME280;50749;51.636;4.948;2023-07-29T12:47:01;100815.16;;;21.95;66.28
59190;BME280;50749;51.636;4.948;2023-07-29T12:49:27;100804.84;;;21.99;66.87
59190;BME280;50749;51.636;4.948;2023-07-29T12:51:54;100806.84;;;21.98;66.62
59190;BME280;50749;51.636;4.948;2023-07-29T12:54:19;100810.38;;;21.95;66.84
59190;BME280;50749;51.636;4.948;2023-07-29T12:56:45;100804.03;;;21.95;67.10
59190;BME280;50749;51.636;4.948;2023-07-29T12:59:11;100807.19;;;21.93;66.45
59190;BME280;50749;51.636;4.948;2023-07-29T13:01:37;100795.28;;;21.93;66.91
59190;BME280;50749;51.636;4.948;2023-07-29T13:04:03;100795.25;;;21.89;66.71
59190;BME280;50749;51.636;4.948;2023-07-29T13:06:28;100794.06;;;21.90;67.29
59190;BME280;50749;51.636;4.948;2023-07-29T13:08:54;100795.66;;;21.91;67.10
59190;BME280;50749;51.636;4.948;2023-07-29T13:11:20;100793.25;;;21.89;67.23
59190;BME280;50749;51.636;4.948;2023-07-29T13:13:46;100801.59;;;21.89;67.22
59190;BME280;50749;51.636;4.948;2023-07-29T13:16:12;100802.41;;;21.90;67.24
59190;BME280;50749;51.636;4.948;2023-07-29T13:18:38;100800.03;;;21.92;67.25